createdAt,value
2023-04-17T00:00:06.256Z,13.70
2023-04-17T00:02:40.891Z,14.57
2023-04-17T00:05:10.085Z,13.82
2023-04-17T00:07:41.875Z,14.38
2023-04-17T00:12:38.743Z,12.45
2023-04-17T00:15:08.647Z,15.80
2023-04-17T00:17:36.867Z,10.25
2023-04-17T00:20:10.135Z,12.85
2023-04-17T00:22:39.088Z,12.07
2023-04-17T00:25:08.071Z,13.35
2023-04-17T00:27:36.076Z,12.65
2023-04-17T00:30:04.852Z,13.77
2023-04-17T00:32:33.391Z,13.13
2023-04-17T00:35:01.898Z,11.80
2023-04-17T00:37:29.958Z,12.20
2023-04-17T00:39:57.855Z,20.23
2023-04-17T00:42:26.043Z,16.10
2023-04-17T00:44:53.997Z,12.70
2023-04-17T00:47:22.776Z,14.18
2023-04-17T00:49:51.697Z,12.38
2023-04-17T00:52:30.904Z,12.13
2023-04-17T00:55:00.694Z,14.65
2023-04-17T00:57:28.888Z,14.00
2023-04-17T00:59:58.419Z,15.02
2023-04-17T01:02:27.252Z,14.35
2023-04-17T01:04:55.834Z,11.57
2023-04-17T01:07:24.297Z,12.15
2023-04-17T01:09:52.409Z,18.10
2023-04-17T01:12:25.336Z,11.55
2023-04-17T01:14:55.306Z,13.38
2023-04-17T01:17:26.264Z,12.98
2023-04-17T01:19:55.727Z,14.15
2023-04-17T01:22:23.913Z,12.50
2023-04-17T01:24:56.532Z,11.75
2023-04-17T01:27:27.269Z,13.20
2023-04-17T01:29:56.034Z,13.13
2023-04-17T01:32:24.072Z,13.70
2023-04-17T01:34:52.207Z,12.82
2023-04-17T01:37:20.188Z,11.90
2023-04-17T01:39:48.008Z,17.92
2023-04-17T01:42:16.542Z,13.90
2023-04-17T01:44:45.073Z,15.50
2023-04-17T01:47:13.036Z,11.02
2023-04-17T01:49:41.552Z,13.90
2023-04-17T01:52:09.512Z,11.77
2023-04-17T01:54:37.761Z,12.82
2023-04-17T01:57:05.972Z,12.02
2023-04-17T01:59:34.006Z,13.05
2023-04-17T02:02:01.953Z,12.55
2023-04-17T02:04:30.227Z,13.82
2023-04-17T02:06:58.308Z,15.05
2023-04-17T02:09:27.106Z,14.45
2023-04-17T02:11:55.198Z,13.02
2023-04-17T02:14:23.073Z,14.55
2023-04-17T02:16:50.934Z,13.13
2023-04-17T02:19:19.014Z,13.60
2023-04-17T02:21:46.898Z,13.00
2023-04-17T02:24:14.742Z,13.90
2023-04-17T02:26:43.024Z,15.10
2023-04-17T02:29:13.863Z,11.25
2023-04-17T02:31:42.495Z,11.48
2023-04-17T02:34:12.766Z,11.57
2023-04-17T02:36:42.027Z,19.50
2023-04-17T02:39:10.280Z,14.70
2023-04-17T02:41:41.052Z,10.00
2023-04-17T02:44:10.385Z,11.65
2023-04-17T02:46:38.915Z,13.80
2023-04-17T02:49:07.116Z,12.75
2023-04-17T02:51:35.128Z,13.00
2023-04-17T02:54:03.545Z,11.07
2023-04-17T02:56:32.407Z,11.80
2023-04-17T02:59:00.288Z,12.25
2023-04-17T03:01:28.428Z,12.07
2023-04-17T03:03:57.468Z,13.35
2023-04-17T03:06:26.809Z,13.10
2023-04-17T03:08:54.792Z,10.82
2023-04-17T03:11:23.461Z,15.45
2023-04-17T03:13:51.406Z,12.10
2023-04-17T03:16:19.326Z,11.63
2023-04-17T03:18:48.238Z,13.93
2023-04-17T03:21:16.243Z,11.38
2023-04-17T03:23:44.127Z,13.40
2023-04-17T03:26:14.376Z,12.32
2023-04-17T03:28:43.043Z,13.68
2023-04-17T03:31:11.098Z,11.77
2023-04-17T03:33:39.316Z,12.57
2023-04-17T03:36:07.926Z,14.32
2023-04-17T03:38:38.531Z,12.45
2023-04-17T03:41:10.558Z,10.73
2023-04-17T03:43:39.120Z,11.55
2023-04-17T03:46:09.855Z,16.92
2023-04-17T03:48:39.323Z,11.27
2023-04-17T03:51:07.572Z,14.75
2023-04-17T03:53:36.860Z,14.77
2023-04-17T03:56:09.169Z,12.13
2023-04-17T03:58:41.869Z,12.18
2023-04-17T04:01:12.742Z,13.73
2023-04-17T04:03:52.552Z,16.80
2023-04-17T04:06:22.916Z,12.30
2023-04-17T04:08:51.533Z,12.77
2023-04-17T04:11:19.657Z,13.40
2023-04-17T04:13:48.218Z,16.58
2023-04-17T04:16:16.831Z,15.50
2023-04-17T04:18:45.397Z,14.15
2023-04-17T04:21:16.130Z,15.70
2023-04-17T04:23:46.132Z,13.23
2023-04-17T04:26:17.824Z,15.50
2023-04-17T04:28:51.801Z,15.68
2023-04-17T04:31:30.844Z,14.45
2023-04-17T04:34:02.360Z,16.13
2023-04-17T04:36:31.302Z,17.15
2023-04-17T04:39:12.159Z,15.68
2023-04-17T04:41:46.166Z,14.32
2023-04-17T04:44:15.439Z,20.30
2023-04-17T04:46:46.629Z,15.32
2023-04-17T04:49:14.706Z,17.38
2023-04-17T04:51:42.933Z,19.63
2023-04-17T04:54:11.411Z,17.52
2023-04-17T04:56:51.196Z,20.80
2023-04-17T04:59:19.452Z,16.63
2023-04-17T05:01:57.018Z,14.93
2023-04-17T05:04:27.372Z,16.02
2023-04-17T05:06:59.949Z,17.00
2023-04-17T05:09:28.667Z,15.93
2023-04-17T05:11:59.420Z,16.60
2023-04-17T05:14:28.458Z,15.10
2023-04-17T05:16:56.603Z,12.98
2023-04-17T05:19:26.148Z,13.00
2023-04-17T05:21:59.272Z,15.75
2023-04-17T05:24:27.449Z,15.38
2023-04-17T05:26:55.433Z,13.75
2023-04-17T05:29:25.383Z,16.30
2023-04-17T05:31:55.069Z,15.73
2023-04-17T05:35:01.901Z,18.83
2023-04-17T05:37:31.364Z,14.82
2023-04-17T05:40:01.414Z,16.67
2023-04-17T05:42:30.555Z,12.75
2023-04-17T05:44:59.014Z,14.52
2023-04-17T05:47:27.052Z,17.95
2023-04-17T05:49:58.310Z,15.80
2023-04-17T05:52:29.448Z,17.60
2023-04-17T05:54:58.272Z,16.00
2023-04-17T05:57:26.972Z,17.08
2023-04-17T05:59:54.899Z,18.35
2023-04-17T06:02:23.492Z,16.92
2023-04-17T06:04:52.627Z,17.75
2023-04-17T06:07:20.723Z,12.48
2023-04-17T06:09:48.827Z,16.58
2023-04-17T06:12:17.037Z,15.82
2023-04-17T06:14:46.356Z,14.23
2023-04-17T06:17:17.407Z,13.18
2023-04-17T06:19:45.881Z,16.15
2023-04-17T06:22:13.735Z,16.33
2023-04-17T06:24:41.732Z,15.57
2023-04-17T06:27:10.014Z,12.52
2023-04-17T06:29:37.985Z,15.30
2023-04-17T06:32:06.912Z,16.00
2023-04-17T06:34:35.127Z,13.40
2023-04-17T06:37:03.233Z,13.88
2023-04-17T06:39:31.906Z,16.13
2023-04-17T06:42:03.005Z,15.25
2023-04-17T06:44:38.015Z,18.15
2023-04-17T06:47:13.998Z,13.30
2023-04-17T06:49:42.068Z,16.60
2023-04-17T06:52:10.088Z,21.95
2023-04-17T06:54:38.777Z,19.70
2023-04-17T06:57:09.964Z,18.70
2023-04-17T06:59:38.535Z,15.88
2023-04-17T07:02:06.668Z,11.65
2023-04-17T07:04:34.840Z,12.13
2023-04-17T07:07:02.874Z,11.85
2023-04-17T07:09:31.126Z,11.18
2023-04-17T07:11:59.775Z,12.82
2023-04-17T07:14:27.738Z,13.40
2023-04-17T07:16:56.084Z,9.32
2023-04-17T07:19:24.176Z,10.02
2023-04-17T07:21:52.258Z,11.68
2023-04-17T07:24:20.280Z,10.27
2023-04-17T07:26:49.646Z,9.57
2023-04-17T07:29:17.878Z,9.07
2023-04-17T07:31:47.720Z,14.43
2023-04-17T07:34:15.736Z,8.52
2023-04-17T07:36:44.177Z,9.88
2023-04-17T07:39:12.347Z,8.32
2023-04-17T07:41:40.576Z,8.57
2023-04-17T07:44:08.536Z,13.63
2023-04-17T07:46:36.702Z,9.02
2023-04-17T07:49:04.667Z,9.50
2023-04-17T07:51:32.945Z,9.68
2023-04-17T07:54:01.618Z,9.55
2023-04-17T07:56:31.892Z,8.90
2023-04-17T07:59:00.118Z,12.15
2023-04-17T08:01:28.248Z,9.93
2023-04-17T08:03:56.610Z,9.88
2023-04-17T08:06:24.659Z,9.35
2023-04-17T08:08:52.636Z,10.27
2023-04-17T08:11:21.012Z,11.65
2023-04-17T08:13:49.051Z,11.60
2023-04-17T08:16:17.470Z,9.55
2023-04-17T08:18:45.528Z,7.50
2023-04-17T08:21:13.428Z,11.10
2023-04-17T08:23:42.087Z,8.20
2023-04-17T08:26:10.365Z,11.90
2023-04-17T08:28:38.659Z,11.25
2023-04-17T08:31:08.885Z,12.38
2023-04-17T08:33:37.218Z,10.70
2023-04-17T08:36:07.961Z,10.98
2023-04-17T08:38:37.624Z,12.50
2023-04-17T08:41:12.987Z,11.48
2023-04-17T08:43:43.778Z,9.88
2023-04-17T08:46:12.043Z,9.63
2023-04-17T08:48:40.180Z,11.02
2023-04-17T08:51:08.647Z,14.00
2023-04-17T08:53:36.621Z,11.48
2023-04-17T08:56:08.931Z,9.77
2023-04-17T08:58:37.961Z,11.80
2023-04-17T09:01:17.739Z,9.73
2023-04-17T09:03:52.311Z,12.65
2023-04-17T09:06:20.937Z,10.70
2023-04-17T09:09:02.263Z,10.95
2023-04-17T09:11:30.754Z,9.93
2023-04-17T09:13:59.080Z,15.00
2023-04-17T09:16:29.342Z,13.05
2023-04-17T09:19:07.089Z,16.15
2023-04-17T09:21:35.545Z,12.23
2023-04-17T09:24:05.549Z,10.68
2023-04-17T09:26:33.530Z,13.00
2023-04-17T09:29:04.109Z,11.68
2023-04-17T09:31:34.949Z,11.57
2023-04-17T09:34:09.436Z,14.30
2023-04-17T09:36:41.702Z,14.48
2023-04-17T09:39:24.729Z,12.50
2023-04-17T09:42:05.848Z,10.48
2023-04-17T09:44:37.148Z,14.52
2023-04-17T09:47:07.839Z,11.13
2023-04-17T09:49:52.881Z,10.77
2023-04-17T09:52:23.775Z,13.45
2023-04-17T09:54:54.245Z,12.27
2023-04-17T09:57:22.533Z,11.13
2023-04-17T09:59:51.817Z,12.82
2023-04-17T10:02:21.969Z,16.58
2023-04-17T10:04:50.366Z,15.98
2023-04-17T10:07:18.780Z,18.40
2023-04-17T10:09:47.895Z,14.50
2023-04-17T10:12:20.546Z,10.73
2023-04-17T10:14:51.922Z,11.93
2023-04-17T10:17:34.919Z,20.63
2023-04-17T10:20:18.379Z,13.60
2023-04-17T10:22:54.838Z,14.55
2023-04-17T10:25:23.333Z,14.15
2023-04-17T10:27:53.705Z,17.65
2023-04-17T10:30:23.538Z,21.15
2023-04-17T10:33:20.126Z,22.73
2023-04-17T10:35:48.756Z,20.63
2023-04-17T10:38:18.677Z,18.13
2023-04-17T10:40:47.092Z,13.88
2023-04-17T10:43:23.565Z,11.02
2023-04-17T10:46:02.260Z,10.73
2023-04-17T10:48:53.076Z,26.15
2023-04-17T10:51:28.276Z,24.27
2023-04-17T10:54:01.640Z,16.25
2023-04-17T10:56:31.009Z,15.20
2023-04-17T10:59:02.124Z,15.27
2023-04-17T11:01:53.292Z,18.95
2023-04-17T11:04:29.949Z,26.20
2023-04-17T11:06:58.910Z,25.30
2023-04-17T11:09:29.719Z,16.20
2023-04-17T11:12:02.338Z,26.00
2023-04-17T11:14:31.303Z,27.83
2023-04-17T11:16:59.741Z,16.27
2023-04-17T11:19:28.531Z,14.00
2023-04-17T11:22:01.782Z,12.50
2023-04-17T11:24:32.464Z,12.15
2023-04-17T11:27:02.151Z,13.23
2023-04-17T11:29:31.838Z,15.30
2023-04-17T11:32:01.381Z,17.60
2023-04-17T11:34:30.425Z,14.88
2023-04-17T11:37:00.946Z,14.82
2023-04-17T11:39:34.342Z,12.70
2023-04-17T11:42:03.845Z,11.48
2023-04-17T11:44:31.997Z,10.20
2023-04-17T11:47:00.805Z,8.02
2023-04-17T11:49:39.364Z,7.75
2023-04-17T11:52:07.514Z,10.13
2023-04-17T11:54:38.110Z,8.07
2023-04-17T11:57:15.041Z,8.02
2023-04-17T11:59:45.125Z,6.15
2023-04-17T12:02:15.488Z,7.65
2023-04-17T12:04:43.975Z,8.32
2023-04-17T12:07:26.294Z,7.47
2023-04-17T12:09:58.613Z,7.38
2023-04-17T12:12:26.934Z,6.85
2023-04-17T12:14:55.000Z,8.68
2023-04-17T12:17:23.156Z,7.13
2023-04-17T12:19:51.307Z,6.03
2023-04-17T12:22:19.653Z,6.50
2023-04-17T12:24:49.085Z,6.30
2023-04-17T12:27:17.553Z,12.73
2023-04-17T12:29:45.746Z,12.52
2023-04-17T12:32:16.281Z,11.45
2023-04-17T12:34:44.607Z,15.05
2023-04-17T12:37:12.540Z,10.85
2023-04-17T12:39:40.801Z,5.90
2023-04-17T12:42:09.139Z,8.52
2023-04-17T12:44:37.134Z,4.45
2023-04-17T12:47:05.298Z,3.80
2023-04-17T12:49:33.470Z,4.47
2023-04-17T12:52:03.695Z,5.07
2023-04-17T12:54:33.290Z,3.58
2023-04-17T12:57:01.771Z,4.93
2023-04-17T12:59:29.801Z,5.63
2023-04-17T13:01:58.063Z,3.47
2023-04-17T13:04:26.243Z,2.88
2023-04-17T13:06:54.476Z,2.95
2023-04-17T13:09:22.863Z,3.42
2023-04-17T13:11:50.937Z,3.50
2023-04-17T13:14:18.945Z,3.80
2023-04-17T13:16:48.907Z,3.85
2023-04-17T13:19:17.642Z,2.80
2023-04-17T13:21:45.470Z,3.70
2023-04-17T13:24:14.941Z,4.57
2023-04-17T13:26:43.843Z,3.92
2023-04-17T13:29:12.369Z,3.50
2023-04-17T13:31:41.186Z,2.55
2023-04-17T13:34:11.501Z,3.80
2023-04-17T13:36:39.481Z,3.10
2023-04-17T13:39:07.597Z,4.05
2023-04-17T13:41:36.951Z,3.78
2023-04-17T13:44:05.063Z,4.10
2023-04-17T13:46:33.437Z,2.53
2023-04-17T13:49:01.860Z,2.30
2023-04-17T13:51:29.957Z,3.28
2023-04-17T13:54:01.183Z,2.15
2023-04-17T13:56:29.346Z,3.40
2023-04-17T13:58:58.635Z,3.58
2023-04-17T14:01:26.848Z,2.83
2023-04-17T14:03:55.348Z,4.07
2023-04-17T14:06:23.433Z,3.83
2023-04-17T14:08:51.612Z,4.72
2023-04-17T14:11:19.804Z,3.88
2023-04-17T14:13:47.926Z,4.38
2023-04-17T14:16:16.228Z,3.35
2023-04-17T14:18:46.002Z,4.43
2023-04-17T14:21:14.615Z,6.38
2023-04-17T14:23:43.474Z,3.03
2023-04-17T14:26:12.555Z,4.30
2023-04-17T14:28:40.673Z,4.57
2023-04-17T14:31:08.963Z,7.45
2023-04-17T14:33:36.891Z,5.63
2023-04-17T14:36:05.996Z,4.40
2023-04-17T14:38:34.692Z,4.60
2023-04-17T14:41:02.781Z,4.43
2023-04-17T14:43:30.821Z,5.22
2023-04-17T14:45:58.967Z,4.97
2023-04-17T14:48:27.008Z,4.28
2023-04-17T14:50:55.018Z,4.90
2023-04-17T14:53:23.324Z,5.70
2023-04-17T14:55:51.739Z,3.22
2023-04-17T14:58:22.734Z,3.40
2023-04-17T15:00:50.846Z,4.10
2023-04-17T15:03:18.867Z,3.10
2023-04-17T15:05:47.486Z,3.53
2023-04-17T15:08:15.662Z,3.95
2023-04-17T15:10:50.841Z,3.65
2023-04-17T15:13:19.717Z,3.45
2023-04-17T15:15:47.633Z,4.18
2023-04-17T15:18:15.656Z,3.92
2023-04-17T15:20:43.704Z,3.47
2023-04-17T15:23:11.715Z,4.38
2023-04-17T15:25:40.258Z,4.45
2023-04-17T15:28:08.826Z,5.30
2023-04-17T15:30:36.852Z,5.22
2023-04-17T15:33:08.526Z,4.63
2023-04-17T15:35:39.412Z,5.20
2023-04-17T15:38:08.328Z,4.03
2023-04-17T15:40:36.597Z,3.70
2023-04-17T15:43:04.849Z,3.88
2023-04-17T15:45:32.806Z,3.90
2023-04-17T15:48:01.867Z,4.68
2023-04-17T15:50:30.431Z,4.78
2023-04-17T15:52:58.517Z,4.25
2023-04-17T15:55:26.809Z,5.95
2023-04-17T15:57:55.444Z,5.28
2023-04-17T16:00:23.688Z,4.38
2023-04-17T16:02:52.312Z,68.07
2023-04-17T16:05:21.472Z,4.88
2023-04-17T16:07:49.614Z,4.72
2023-04-17T16:10:19.082Z,5.40
2023-04-17T16:12:47.684Z,4.95
2023-04-17T16:15:18.082Z,5.57
2023-04-17T16:17:48.810Z,5.13
2023-04-17T16:20:17.793Z,6.25
2023-04-17T16:22:45.782Z,4.65
2023-04-17T16:25:14.001Z,6.00
2023-04-17T16:27:42.177Z,6.65
2023-04-17T16:30:11.593Z,5.55
2023-04-17T16:32:39.985Z,8.90
2023-04-17T16:35:08.930Z,6.20
2023-04-17T16:37:37.694Z,5.28
2023-04-17T16:40:06.924Z,5.82
2023-04-17T16:42:35.286Z,5.88
2023-04-17T16:45:04.123Z,6.72
2023-04-17T16:47:33.189Z,7.97
2023-04-17T16:50:01.445Z,4.95
2023-04-17T16:52:29.898Z,8.13
2023-04-17T16:54:59.628Z,8.00
2023-04-17T16:57:27.905Z,7.55
2023-04-17T16:59:55.869Z,7.85
2023-04-17T17:02:24.070Z,5.55
2023-04-17T17:04:52.488Z,6.72
2023-04-17T17:07:20.616Z,6.60
2023-04-17T17:09:49.044Z,4.80
2023-04-17T17:12:17.229Z,7.70
2023-04-17T17:14:46.181Z,10.13
2023-04-17T17:17:14.360Z,5.78
2023-04-17T17:19:42.712Z,9.30
2023-04-17T17:22:13.810Z,6.63
2023-04-17T17:24:42.115Z,6.78
2023-04-17T17:27:10.258Z,6.00
2023-04-17T17:29:41.349Z,7.22
2023-04-17T17:32:09.768Z,6.55
2023-04-17T17:34:38.088Z,5.97
2023-04-17T17:37:06.528Z,40.35
2023-04-17T17:39:35.251Z,15.52
2023-04-17T17:42:32.918Z,7.60
2023-04-17T17:45:01.225Z,7.50
2023-04-17T17:47:29.663Z,8.95
2023-04-17T17:49:57.738Z,8.02
2023-04-17T17:52:26.015Z,8.10
2023-04-17T17:54:54.241Z,12.15
2023-04-17T17:57:22.155Z,9.38
2023-04-17T17:59:50.521Z,8.38
2023-04-17T18:02:18.641Z,9.85
2023-04-17T18:04:46.815Z,7.90
2023-04-17T18:07:15.451Z,8.63
2023-04-17T18:09:44.374Z,10.43
2023-04-17T18:12:12.245Z,10.32
2023-04-17T18:14:40.608Z,9.65
2023-04-17T18:17:08.536Z,11.43
2023-04-17T18:19:41.055Z,10.93
2023-04-17T18:22:09.515Z,12.57
2023-04-17T18:24:38.010Z,8.93
2023-04-17T18:27:06.129Z,10.70
2023-04-17T18:29:34.220Z,11.70
2023-04-17T18:32:03.719Z,6.80
2023-04-17T18:34:31.882Z,9.80
2023-04-17T18:37:00.636Z,12.50
2023-04-17T18:39:29.019Z,11.25
2023-04-17T18:41:58.117Z,12.07
2023-04-17T18:44:26.365Z,10.43
2023-04-17T18:46:55.068Z,11.77
2023-04-17T18:49:25.182Z,13.90
2023-04-17T18:51:54.146Z,11.20
2023-04-17T18:54:23.197Z,9.48
2023-04-17T18:56:51.346Z,11.52
2023-04-17T18:59:21.380Z,14.60
2023-04-17T19:01:50.309Z,12.93
2023-04-17T19:04:18.677Z,11.00
2023-04-17T19:06:46.650Z,10.57
2023-04-17T19:09:14.783Z,14.13
2023-04-17T19:11:43.108Z,11.50
2023-04-17T19:14:11.421Z,10.98
2023-04-17T19:16:39.745Z,12.60
2023-04-17T19:19:08.571Z,10.55
2023-04-17T19:21:37.599Z,11.88
2023-04-17T19:24:06.936Z,9.95
2023-04-17T19:26:35.130Z,10.10
2023-04-17T19:29:04.882Z,9.52
2023-04-17T19:31:33.548Z,10.20
2023-04-17T19:34:01.895Z,12.27
2023-04-17T19:36:30.377Z,9.25
2023-04-17T19:38:59.995Z,9.95
2023-04-17T19:41:28.695Z,9.70
2023-04-17T19:43:57.020Z,11.23
2023-04-17T19:46:26.119Z,10.88
2023-04-17T19:48:54.806Z,12.80
2023-04-17T19:51:23.025Z,10.48
2023-04-17T19:53:53.447Z,10.98
2023-04-17T19:56:21.760Z,10.77
2023-04-17T19:58:50.253Z,10.38
2023-04-17T20:01:18.422Z,14.38
2023-04-17T20:03:47.226Z,11.73
2023-04-17T20:06:15.637Z,14.10
2023-04-17T20:08:43.814Z,14.38
2023-04-17T20:11:12.505Z,14.00
2023-04-17T20:13:40.729Z,14.95
2023-04-17T20:16:09.039Z,15.32
2023-04-17T20:18:38.355Z,10.80
2023-04-17T20:21:06.541Z,12.43
2023-04-17T20:23:35.506Z,12.50
2023-04-17T20:26:04.490Z,11.05
2023-04-17T20:28:32.795Z,13.18
2023-04-17T20:31:00.851Z,12.07
2023-04-17T20:33:29.155Z,15.55
2023-04-17T20:35:57.354Z,13.15
2023-04-17T20:38:25.975Z,14.82
2023-04-17T20:40:54.871Z,13.77
2023-04-17T20:43:23.238Z,15.95
2023-04-17T20:45:51.630Z,13.00
2023-04-17T20:48:20.037Z,15.75
2023-04-17T20:50:48.589Z,12.05
2023-04-17T20:53:16.493Z,19.38
2023-04-17T20:55:47.148Z,17.58
2023-04-17T20:58:15.314Z,16.98
2023-04-17T21:00:57.912Z,16.15
2023-04-17T21:03:33.765Z,17.60
2023-04-17T21:06:01.971Z,16.85
2023-04-17T21:08:29.944Z,19.30
2023-04-17T21:10:58.135Z,21.08
2023-04-17T21:13:26.597Z,20.38
2023-04-17T21:15:55.190Z,19.83
2023-04-17T21:18:23.536Z,20.40
2023-04-17T21:20:51.593Z,17.38
2023-04-17T21:23:20.642Z,16.42
2023-04-17T21:25:52.776Z,20.02
2023-04-17T21:28:21.053Z,18.23
2023-04-17T21:30:49.125Z,21.45
2023-04-17T21:33:17.932Z,18.80
2023-04-17T21:35:46.320Z,20.15
2023-04-17T21:38:14.721Z,17.80
2023-04-17T21:40:51.178Z,19.88
2023-04-17T21:43:19.754Z,18.83
2023-04-17T21:45:48.103Z,21.90
2023-04-17T21:48:16.595Z,22.55
2023-04-17T21:50:44.616Z,22.55
2023-04-17T21:53:12.747Z,22.13
2023-04-17T21:55:40.990Z,19.48
2023-04-17T21:58:09.070Z,19.45
2023-04-17T22:00:37.249Z,19.42
2023-04-17T22:03:05.412Z,24.38
2023-04-17T22:05:33.414Z,21.75
2023-04-17T22:08:01.652Z,23.30
2023-04-17T22:10:30.117Z,24.45
2023-04-17T22:12:58.422Z,25.25
2023-04-17T22:15:26.508Z,22.80
2023-04-17T22:17:54.536Z,22.42
2023-04-17T22:20:22.578Z,25.00
2023-04-17T22:22:50.649Z,21.52
2023-04-17T22:25:18.700Z,22.13
2023-04-17T22:27:47.186Z,25.00
2023-04-17T22:30:15.381Z,21.35
2023-04-17T22:32:43.335Z,21.02
2023-04-17T22:35:11.248Z,21.05
2023-04-17T22:37:39.293Z,22.05
2023-04-17T22:40:08.254Z,21.85
2023-04-17T22:42:36.324Z,21.00
2023-04-17T22:45:05.273Z,18.60
2023-04-17T22:47:33.400Z,21.63
2023-04-17T22:50:02.515Z,20.80
2023-04-17T22:52:30.891Z,22.38
2023-04-17T22:54:58.999Z,20.88
2023-04-17T22:57:27.029Z,19.85
2023-04-17T22:59:56.009Z,22.95
2023-04-17T23:02:24.630Z,17.35
2023-04-17T23:04:52.960Z,23.83
2023-04-17T23:07:21.413Z,22.38
2023-04-17T23:09:49.934Z,22.42
2023-04-17T23:12:18.063Z,19.70
2023-04-17T23:14:46.226Z,21.00
2023-04-17T23:17:14.571Z,20.98
2023-04-17T23:19:42.769Z,17.50
2023-04-17T23:22:11.078Z,19.75
2023-04-17T23:24:39.067Z,20.88
2023-04-17T23:27:08.197Z,23.10
2023-04-17T23:29:36.633Z,21.30
2023-04-17T23:32:06.570Z,18.95
2023-04-17T23:34:34.583Z,19.25
2023-04-17T23:37:02.931Z,21.15
2023-04-17T23:39:31.235Z,22.65
2023-04-17T23:42:07.346Z,23.13
2023-04-17T23:44:35.659Z,21.40
2023-04-17T23:47:04.651Z,20.98
2023-04-17T23:49:34.472Z,21.38
2023-04-17T23:52:02.624Z,19.33
2023-04-17T23:54:30.756Z,18.58
2023-04-17T23:56:58.799Z,22.40
2023-04-17T23:59:26.622Z,22.55
